createdAt,value
2022-10-31T00:03:45.765Z,13.50
2022-10-31T00:13:47.530Z,13.40
2022-10-31T00:23:49.545Z,13.40
2022-10-31T00:33:51.387Z,13.50
2022-10-31T00:43:53.053Z,13.60
2022-10-31T00:53:54.717Z,13.60
2022-10-31T01:03:56.391Z,13.60
2022-10-31T01:13:58.211Z,13.60
2022-10-31T01:24:00.321Z,13.60
2022-10-31T01:34:02.397Z,13.60
2022-10-31T01:44:16.095Z,13.50
2022-10-31T01:54:21.821Z,13.50
2022-10-31T02:04:26.002Z,13.50
2022-10-31T02:14:30.201Z,13.40
2022-10-31T02:24:59.072Z,13.50
2022-10-31T02:35:26.000Z,13.40
2022-10-31T02:45:55.050Z,13.30
2022-10-31T02:56:26.121Z,13.30
2022-10-31T03:06:46.458Z,13.30
2022-10-31T03:16:50.770Z,13.20
2022-10-31T03:26:56.263Z,13.10
2022-10-31T03:37:01.618Z,13.00
2022-10-31T03:47:04.960Z,13.10
2022-10-31T03:57:15.835Z,13.10
2022-10-31T04:07:19.445Z,13.00
2022-10-31T04:17:24.595Z,12.90
2022-10-31T04:27:26.744Z,12.80
2022-10-31T04:37:28.406Z,12.90
2022-10-31T04:47:35.243Z,12.90
2022-10-31T04:57:48.188Z,12.70
2022-10-31T05:07:50.699Z,12.70
2022-10-31T05:17:53.470Z,12.70
2022-10-31T05:27:57.562Z,12.60
2022-10-31T05:38:00.065Z,12.60
2022-10-31T05:48:02.831Z,12.60
2022-10-31T05:58:04.913Z,12.50
2022-10-31T06:08:06.650Z,12.50
2022-10-31T06:18:09.262Z,12.50
2022-10-31T06:28:11.095Z,12.50
2022-10-31T06:38:12.757Z,12.40
2022-10-31T06:48:17.535Z,12.40
2022-10-31T06:58:19.533Z,12.30
2022-10-31T07:08:21.208Z,12.30
2022-10-31T07:18:23.088Z,12.30
2022-10-31T07:28:25.437Z,12.60
2022-10-31T07:38:27.159Z,12.60
2022-10-31T07:48:28.843Z,12.70
2022-10-31T07:58:30.620Z,12.70
2022-10-31T08:08:36.003Z,12.80
2022-10-31T08:18:39.989Z,12.80
2022-10-31T08:28:41.664Z,13.00
2022-10-31T08:38:43.363Z,12.90
2022-10-31T08:48:51.173Z,12.90
2022-10-31T08:58:54.256Z,13.00
2022-10-31T09:08:55.912Z,12.80
2022-10-31T09:18:57.623Z,12.70
2022-10-31T09:28:59.534Z,12.70
2022-10-31T09:39:01.231Z,12.70
2022-10-31T09:49:30.239Z,12.80
2022-10-31T09:59:35.876Z,13.40
2022-10-31T10:09:37.638Z,13.10
2022-10-31T10:20:11.620Z,13.10
2022-10-31T10:30:22.537Z,13.20
2022-10-31T10:40:29.223Z,13.50
2022-10-31T10:50:39.115Z,13.50
2022-10-31T11:00:50.506Z,13.60
2022-10-31T11:11:19.013Z,13.70
2022-10-31T11:21:29.561Z,13.90
2022-10-31T11:31:31.942Z,14.00
2022-10-31T11:41:37.651Z,14.00
2022-10-31T11:51:40.679Z,14.10
2022-10-31T12:01:51.600Z,14.20
2022-10-31T12:12:23.934Z,14.30
2022-10-31T12:22:48.980Z,14.40
2022-10-31T12:33:12.312Z,14.60
2022-10-31T12:43:19.822Z,14.60
2022-10-31T12:53:27.521Z,14.70
2022-10-31T13:03:40.245Z,14.80
2022-10-31T13:14:07.905Z,14.90
2022-10-31T13:24:19.325Z,15.10
2022-10-31T13:34:41.531Z,15.20
2022-10-31T13:44:43.326Z,15.30
2022-10-31T13:54:48.249Z,15.30
2022-10-31T14:15:10.426Z,15.20
2022-10-31T14:25:35.495Z,15.20
2022-10-31T14:36:05.308Z,15.20
2022-10-31T14:46:15.937Z,15.20
2022-10-31T14:56:27.096Z,15.10
2022-10-31T15:06:38.910Z,15.10
2022-10-31T15:16:44.141Z,15.10
2022-10-31T15:26:48.880Z,15.20
2022-10-31T15:36:51.592Z,15.20
2022-10-31T15:47:16.815Z,15.20
2022-10-31T15:57:19.037Z,15.10
2022-10-31T16:07:23.497Z,15.00
2022-10-31T16:17:27.717Z,14.80
2022-10-31T16:27:32.557Z,14.70
2022-10-31T16:37:34.292Z,14.70
2022-10-31T16:47:36.065Z,14.70
2022-10-31T16:57:37.839Z,14.60
2022-10-31T17:07:39.530Z,14.60
2022-10-31T17:17:41.181Z,14.60
2022-10-31T17:27:44.943Z,14.60
2022-10-31T17:37:49.334Z,14.60
2022-10-31T17:47:52.329Z,14.60
2022-10-31T17:57:53.987Z,14.70
2022-10-31T18:07:57.273Z,14.60
2022-10-31T18:18:01.285Z,14.60
2022-10-31T18:28:03.395Z,14.60
2022-10-31T18:38:06.743Z,14.60
2022-10-31T18:48:12.259Z,14.60
2022-10-31T18:58:14.000Z,14.60
2022-10-31T19:08:16.058Z,14.50
2022-10-31T19:18:17.765Z,14.50
2022-10-31T19:28:19.400Z,14.50
2022-10-31T19:38:21.051Z,14.50
2022-10-31T19:48:23.020Z,14.50
2022-10-31T19:58:25.249Z,14.50
2022-10-31T20:08:28.112Z,14.50
2022-10-31T20:18:30.599Z,14.40
2022-10-31T20:28:33.431Z,14.40
2022-10-31T20:38:38.579Z,14.40
2022-10-31T20:48:40.542Z,14.30
2022-10-31T20:58:43.584Z,14.20
2022-10-31T21:08:45.645Z,14.20
2022-10-31T21:18:49.300Z,14.20
2022-10-31T21:28:55.197Z,14.20
2022-10-31T21:38:57.275Z,14.20
2022-10-31T21:48:59.566Z,14.20
2022-10-31T21:59:01.557Z,14.30
2022-10-31T22:09:05.370Z,14.10
2022-10-31T22:19:10.048Z,14.00
2022-10-31T22:29:14.728Z,14.00
2022-10-31T22:39:16.407Z,14.00
2022-10-31T22:49:18.272Z,14.10
2022-10-31T22:59:20.118Z,14.10
2022-10-31T23:09:21.867Z,14.00
2022-10-31T23:19:28.220Z,14.00
2022-10-31T23:29:29.866Z,14.00
2022-10-31T23:39:31.707Z,14.00
2022-10-31T23:49:33.562Z,14.00
2022-10-31T23:59:35.271Z,14.00
